createdAt,value
2018-11-22T00:00:44.602Z,61.00
2018-11-22T00:03:30.214Z,59.80
2018-11-22T00:05:59.468Z,59.60
2018-11-22T00:08:29.007Z,59.60
2018-11-22T00:10:59.156Z,60.40
2018-11-22T00:13:28.088Z,60.50
2018-11-22T00:15:57.129Z,60.70
2018-11-22T00:18:26.378Z,60.50
2018-11-22T00:20:55.927Z,60.50
2018-11-22T00:23:25.392Z,60.70
2018-11-22T00:26:14.604Z,61.40
2018-11-22T00:28:43.265Z,60.90
2018-11-22T00:31:12.237Z,60.70
2018-11-22T00:39:52.089Z,61.80
2018-11-22T00:42:21.495Z,61.70
2018-11-22T00:44:50.968Z,62.30
2018-11-22T00:47:20.294Z,62.30
2018-11-22T00:49:49.320Z,62.10
2018-11-22T00:52:18.626Z,62.40
2018-11-22T00:54:47.796Z,62.20
2018-11-22T00:57:16.744Z,62.90
2018-11-22T00:59:45.742Z,62.80
2018-11-22T01:02:14.855Z,62.90
2018-11-22T01:04:43.897Z,63.50
2018-11-22T01:07:12.509Z,62.10
2018-11-22T01:09:42.972Z,61.80
2018-11-22T01:12:12.242Z,62.20
2018-11-22T01:14:41.332Z,62.30
2018-11-22T01:17:09.972Z,62.30
2018-11-22T01:19:40.850Z,62.20
2018-11-22T01:22:09.804Z,62.10
2018-11-22T01:24:38.837Z,61.80
2018-11-22T01:27:08.334Z,62.10
2018-11-22T01:29:37.334Z,62.10
2018-11-22T01:32:12.061Z,62.50
2018-11-22T01:34:41.119Z,63.30
2018-11-22T01:37:10.075Z,63.10
2018-11-22T01:39:39.347Z,63.10
2018-11-22T01:42:14.089Z,63.10
2018-11-22T01:44:43.127Z,63.20
2018-11-22T01:47:12.116Z,63.30
2018-11-22T01:49:41.851Z,63.10
2018-11-22T01:52:10.920Z,63.60
2018-11-22T01:54:41.696Z,63.40
2018-11-22T01:57:11.058Z,62.90
2018-11-22T01:59:40.054Z,62.60
2018-11-22T02:02:09.044Z,61.20
2018-11-22T02:04:38.665Z,61.30
2018-11-22T02:07:08.090Z,62.40
2018-11-22T02:09:37.172Z,63.20
2018-11-22T02:12:06.889Z,63.30
2018-11-22T02:14:36.674Z,62.00
2018-11-22T02:17:05.702Z,60.90
2018-11-22T02:19:35.677Z,62.50
2018-11-22T02:22:04.672Z,63.30
2018-11-22T02:24:33.620Z,63.40
2018-11-22T02:27:04.444Z,64.30
2018-11-22T02:29:33.340Z,63.80
2018-11-22T02:32:09.486Z,63.60
2018-11-22T02:34:38.466Z,64.00
2018-11-22T02:37:07.162Z,62.20
2018-11-22T02:39:38.580Z,62.10
2018-11-22T02:42:07.581Z,62.00
2018-11-22T02:44:36.255Z,62.50
2018-11-22T02:47:05.889Z,62.40
2018-11-22T02:49:35.000Z,62.10
2018-11-22T02:52:04.053Z,61.90
2018-11-22T02:54:59.430Z,62.40
2018-11-22T02:57:28.358Z,61.50
2018-11-22T02:59:57.361Z,61.20
2018-11-22T03:02:27.739Z,62.40
2018-11-22T03:04:56.660Z,61.90
2018-11-22T03:07:26.529Z,61.90
2018-11-22T03:09:55.509Z,61.40
2018-11-22T03:12:26.709Z,61.20
2018-11-22T03:14:55.364Z,60.50
2018-11-22T03:17:24.802Z,60.60
2018-11-22T03:19:53.892Z,61.80
2018-11-22T03:22:22.558Z,62.10
2018-11-22T03:24:51.979Z,62.30
2018-11-22T03:27:21.013Z,62.30
2018-11-22T03:29:49.661Z,62.50
2018-11-22T03:32:19.064Z,62.40
2018-11-22T03:34:47.770Z,63.60
2018-11-22T03:37:17.347Z,63.20
2018-11-22T03:39:46.856Z,62.80
2018-11-22T03:42:16.021Z,62.60
2018-11-22T03:44:45.249Z,62.80
2018-11-22T03:47:14.153Z,61.90
2018-11-22T03:49:44.492Z,60.60
2018-11-22T03:52:13.091Z,60.50
2018-11-22T03:54:42.052Z,61.40
2018-11-22T03:57:11.072Z,60.70
2018-11-22T03:59:41.360Z,61.00
2018-11-22T04:02:11.364Z,61.40
2018-11-22T04:04:40.295Z,60.60
2018-11-22T04:07:13.079Z,60.10
2018-11-22T04:09:42.447Z,60.50
2018-11-22T04:12:12.161Z,61.40
2018-11-22T04:14:41.448Z,61.10
2018-11-22T04:17:10.899Z,60.20
2018-11-22T04:19:40.362Z,59.90
2018-11-22T04:22:09.365Z,59.50
2018-11-22T04:25:00.949Z,59.70
2018-11-22T04:27:30.384Z,59.50
2018-11-22T04:29:59.382Z,59.80
2018-11-22T04:32:28.678Z,59.60
2018-11-22T04:34:57.707Z,60.10
2018-11-22T04:37:31.299Z,59.90
2018-11-22T04:40:00.816Z,61.10
2018-11-22T04:42:29.502Z,61.50
2018-11-22T04:44:58.685Z,61.60
2018-11-22T04:47:28.215Z,63.10
2018-11-22T04:49:57.196Z,63.30
2018-11-22T04:52:26.349Z,62.30
2018-11-22T04:54:55.478Z,62.40
2018-11-22T04:57:41.339Z,62.50
2018-11-22T05:00:12.777Z,62.50
2018-11-22T05:02:41.695Z,62.50
2018-11-22T05:05:12.141Z,62.80
2018-11-22T05:07:47.519Z,61.20
2018-11-22T05:10:18.634Z,60.60
2018-11-22T05:12:48.609Z,62.40
2018-11-22T05:15:19.200Z,63.10
2018-11-22T05:18:09.046Z,63.40
2018-11-22T05:20:38.517Z,63.80
2018-11-22T05:23:07.860Z,62.50
2018-11-22T05:25:36.813Z,63.50
2018-11-22T05:28:05.700Z,64.60
2018-11-22T05:33:12.079Z,64.20
2018-11-22T05:35:41.323Z,63.50
2018-11-22T05:38:10.505Z,62.60
2018-11-22T05:40:39.773Z,62.90
2018-11-22T05:43:09.971Z,63.50
2018-11-22T05:45:39.195Z,62.20
2018-11-22T05:48:10.636Z,61.80
2018-11-22T05:50:39.944Z,62.10
2018-11-22T05:53:08.857Z,61.90
2018-11-22T05:55:40.427Z,61.20
2018-11-22T05:58:09.970Z,60.80
2018-11-22T06:00:38.988Z,60.70
2018-11-22T06:03:09.341Z,61.40
2018-11-22T06:05:38.405Z,61.50
2018-11-22T06:08:07.432Z,62.20
2018-11-22T06:10:41.406Z,62.30
2018-11-22T06:13:10.436Z,61.70
2018-11-22T06:15:39.804Z,61.20
2018-11-22T06:18:17.447Z,60.60
2018-11-22T06:20:46.087Z,62.00
2018-11-22T06:23:15.313Z,62.60
2018-11-22T06:25:44.925Z,62.00
2018-11-22T06:28:14.182Z,61.80
2018-11-22T06:30:43.409Z,61.00
2018-11-22T06:33:12.685Z,61.20
2018-11-22T06:35:43.157Z,61.60
2018-11-22T06:38:12.096Z,61.40
2018-11-22T06:40:41.020Z,61.30
2018-11-22T06:43:10.322Z,61.50
2018-11-22T06:45:39.379Z,63.30
2018-11-22T06:48:08.062Z,62.70
2018-11-22T06:50:38.598Z,62.40
2018-11-22T06:53:07.615Z,63.20
2018-11-22T06:55:36.649Z,62.10
2018-11-22T06:58:05.886Z,62.70
2018-11-22T07:00:35.186Z,62.50
2018-11-22T07:03:06.401Z,62.70
2018-11-22T07:05:35.457Z,63.30
2018-11-22T07:08:04.931Z,62.40
2018-11-22T07:10:35.078Z,61.70
2018-11-22T07:13:04.105Z,60.90
2018-11-22T07:15:33.370Z,60.80
2018-11-22T07:18:02.339Z,60.30
2018-11-22T07:20:31.313Z,61.90
2018-11-22T07:23:02.207Z,61.90
2018-11-22T07:25:31.715Z,61.90
2018-11-22T07:28:00.694Z,63.60
2018-11-22T07:30:34.252Z,63.60
2018-11-22T07:33:10.879Z,61.90
2018-11-22T07:35:39.926Z,61.20
2018-11-22T07:38:09.640Z,61.00
2018-11-22T07:40:38.893Z,61.20
2018-11-22T07:43:07.927Z,60.80
2018-11-22T07:45:38.900Z,60.20
2018-11-22T07:48:09.328Z,59.70
2018-11-22T07:50:38.714Z,60.60
2018-11-22T07:53:07.960Z,59.50
2018-11-22T07:55:37.409Z,60.40
2018-11-22T07:58:06.760Z,60.90
2018-11-22T08:00:38.598Z,61.10
2018-11-22T08:03:07.816Z,61.70
2018-11-22T08:05:38.139Z,61.50
2018-11-22T08:08:07.194Z,60.90
2018-11-22T08:10:45.107Z,60.80
2018-11-22T08:13:14.411Z,59.90
2018-11-22T08:15:43.704Z,61.50
2018-11-22T08:18:14.311Z,62.60
2018-11-22T08:20:43.302Z,64.80
2018-11-22T08:23:12.685Z,64.10
2018-11-22T08:25:42.402Z,64.20
2018-11-22T08:28:11.092Z,62.20
2018-11-22T08:30:39.739Z,61.60
2018-11-22T08:33:09.873Z,61.10
2018-11-22T08:35:38.821Z,64.30
2018-11-22T08:38:07.535Z,60.50
2018-11-22T08:40:36.602Z,63.60
2018-11-22T08:43:06.284Z,60.20
2018-11-22T08:45:35.288Z,59.40
2018-11-22T08:48:10.622Z,59.70
2018-11-22T08:50:39.676Z,60.80
2018-11-22T08:53:08.650Z,61.00
2018-11-22T08:55:37.283Z,61.40
2018-11-22T08:58:06.072Z,63.20
2018-11-22T09:00:35.297Z,61.20
2018-11-22T09:03:04.608Z,61.10
2018-11-22T09:05:35.580Z,61.00
2018-11-22T09:08:05.065Z,60.90
2018-11-22T09:10:34.313Z,60.70
2018-11-22T09:13:04.130Z,61.00
2018-11-22T09:15:34.114Z,61.70
2018-11-22T09:18:04.184Z,61.50
2018-11-22T09:20:34.111Z,62.10
2018-11-22T09:23:03.361Z,62.90
2018-11-22T09:25:32.020Z,62.80
2018-11-22T09:28:01.136Z,63.10
2018-11-22T09:30:31.598Z,61.70
2018-11-22T09:33:00.864Z,61.40
2018-11-22T09:35:32.425Z,61.60
2018-11-22T09:38:01.049Z,61.50
2018-11-22T09:40:31.399Z,62.50
2018-11-22T09:43:11.471Z,62.10
2018-11-22T09:45:41.124Z,62.90
2018-11-22T09:48:11.383Z,62.70
2018-11-22T09:50:41.342Z,62.60
2018-11-22T09:53:11.006Z,62.60
2018-11-22T09:55:39.974Z,62.00
2018-11-22T09:58:09.235Z,61.80
2018-11-22T10:00:37.913Z,61.80
2018-11-22T10:03:07.516Z,61.30
2018-11-22T10:05:37.231Z,61.30
2018-11-22T10:08:06.417Z,61.40
2018-11-22T10:10:38.855Z,63.50
2018-11-22T10:13:08.559Z,64.10
2018-11-22T10:15:38.775Z,62.90
2018-11-22T10:18:08.127Z,62.30
2018-11-22T10:20:37.114Z,61.40
2018-11-22T10:23:06.073Z,60.00
2018-11-22T10:25:36.105Z,59.20
2018-11-22T10:28:05.302Z,61.60
2018-11-22T10:30:34.908Z,62.10
2018-11-22T10:33:04.992Z,60.80
2018-11-22T10:35:35.700Z,60.50
2018-11-22T10:38:04.359Z,60.70
2018-11-22T10:40:38.096Z,60.40
2018-11-22T10:45:36.676Z,59.70
2018-11-22T10:48:07.478Z,71.70
2018-11-22T10:50:36.922Z,59.90
2018-11-22T10:53:06.645Z,60.50
2018-11-22T10:55:37.025Z,61.10
2018-11-22T10:58:06.663Z,61.90
2018-11-22T11:00:54.027Z,62.20
2018-11-22T11:03:40.246Z,62.90
2018-11-22T11:06:27.419Z,63.60
2018-11-22T11:08:56.340Z,63.20
2018-11-22T11:11:25.066Z,62.70
2018-11-22T11:13:54.285Z,62.10
2018-11-22T11:16:24.520Z,61.60
2018-11-22T11:18:53.797Z,60.90
2018-11-22T11:21:22.777Z,60.80
2018-11-22T11:23:52.058Z,71.30
2018-11-22T11:26:21.101Z,63.50
2018-11-22T11:28:50.433Z,57.40
2018-11-22T11:31:19.075Z,58.10
2018-11-22T11:33:47.735Z,58.60
2018-11-22T11:36:18.029Z,59.30
2018-11-22T11:38:46.621Z,60.20
2018-11-22T11:41:15.996Z,60.50
2018-11-22T11:43:44.948Z,59.50
2018-11-22T11:46:13.622Z,59.60
2018-11-22T11:48:42.546Z,58.80
2018-11-22T11:51:13.227Z,59.00
2018-11-22T11:53:42.459Z,59.30
2018-11-22T11:56:11.659Z,59.40
2018-11-22T11:58:41.399Z,59.30
2018-11-22T12:01:10.047Z,59.30
2018-11-22T12:03:39.037Z,60.80
2018-11-22T12:06:08.376Z,59.30
2018-11-22T12:08:37.055Z,59.30
2018-11-22T12:11:06.457Z,59.30
2018-11-22T12:13:35.412Z,59.20
2018-11-22T12:16:04.704Z,59.30
2018-11-22T12:18:36.985Z,59.40
2018-11-22T12:21:02.233Z,59.10
2018-11-22T12:23:36.360Z,58.60
2018-11-22T12:26:05.198Z,58.50
2018-11-22T12:28:34.429Z,58.90
2018-11-22T12:31:06.575Z,59.30
2018-11-22T12:33:40.517Z,59.20
2018-11-22T12:36:27.316Z,60.20
2018-11-22T12:38:55.982Z,60.10
2018-11-22T12:41:24.962Z,59.70
2018-11-22T12:43:54.397Z,59.80
2018-11-22T12:46:23.353Z,59.30
2018-11-22T12:48:52.386Z,59.30
2018-11-22T12:51:21.653Z,59.30
2018-11-22T12:53:58.469Z,59.50
2018-11-22T12:56:29.393Z,59.40
2018-11-22T12:58:58.695Z,59.00
2018-11-22T13:01:27.684Z,59.70
2018-11-22T13:04:03.847Z,59.40
2018-11-22T13:06:32.898Z,59.00
2018-11-22T13:09:01.836Z,60.60
2018-11-22T13:11:33.477Z,60.00
2018-11-22T13:14:02.437Z,59.90
2018-11-22T13:16:31.116Z,58.90
2018-11-22T13:19:00.123Z,60.10
2018-11-22T13:21:30.518Z,59.20
2018-11-22T13:23:59.530Z,59.30
2018-11-22T13:26:29.188Z,60.30
2018-11-22T13:28:58.515Z,61.90
2018-11-22T13:31:27.868Z,57.70
2018-11-22T13:33:56.555Z,57.60
2018-11-22T13:36:25.819Z,58.70
2018-11-22T13:38:55.070Z,57.80
2018-11-22T13:41:24.132Z,59.60
2018-11-22T13:43:53.774Z,56.90
2018-11-22T13:46:22.727Z,57.50
2018-11-22T13:48:51.750Z,56.30
2018-11-22T13:51:20.827Z,57.00
2018-11-22T13:53:50.085Z,60.60
2018-11-22T13:56:19.065Z,57.80
2018-11-22T13:58:49.311Z,58.00
2018-11-22T14:01:18.304Z,58.40
2018-11-22T14:03:47.866Z,57.90
2018-11-22T14:06:17.242Z,57.50
2018-11-22T14:08:46.336Z,57.60
2018-11-22T14:11:15.330Z,58.10
2018-11-22T14:13:45.630Z,59.10
2018-11-22T14:16:14.899Z,57.70
2018-11-22T14:18:44.173Z,57.90
2018-11-22T14:21:13.189Z,57.50
2018-11-22T14:23:42.616Z,57.80
2018-11-22T14:26:12.051Z,57.90
2018-11-22T14:28:41.145Z,58.10
2018-11-22T14:31:10.462Z,58.30
2018-11-22T14:33:39.918Z,58.90
2018-11-22T14:36:08.870Z,58.50
2018-11-22T14:38:37.883Z,57.80
2018-11-22T14:41:07.041Z,57.20
2018-11-22T14:43:36.313Z,56.50
2018-11-22T14:46:05.833Z,56.70
2018-11-22T14:48:36.039Z,56.80
2018-11-22T14:51:29.856Z,56.80
2018-11-22T14:53:58.807Z,56.60
2018-11-22T14:56:28.439Z,56.30
2018-11-22T14:58:58.035Z,56.40
2018-11-22T15:01:27.594Z,56.90
2018-11-22T15:03:56.531Z,57.00
2018-11-22T15:06:25.920Z,57.50
2018-11-22T15:08:55.977Z,57.50
2018-11-22T15:11:24.918Z,57.30
2018-11-22T15:13:53.881Z,56.90
2018-11-22T15:16:22.842Z,56.80
2018-11-22T15:18:52.106Z,56.60
2018-11-22T15:21:23.892Z,56.50
2018-11-22T15:23:52.623Z,56.40
2018-11-22T15:26:21.945Z,56.60
2018-11-22T15:28:59.548Z,56.80
2018-11-22T15:31:28.539Z,56.70
2018-11-22T15:33:57.480Z,58.40
2018-11-22T15:36:26.473Z,56.00
2018-11-22T15:38:55.673Z,55.90
2018-11-22T15:41:24.603Z,56.20
2018-11-22T15:43:53.566Z,56.40
2018-11-22T15:46:43.991Z,56.40
2018-11-22T15:49:12.687Z,56.70
2018-11-22T15:51:41.695Z,56.90
2018-11-22T15:54:10.698Z,57.10
2018-11-22T15:56:39.970Z,57.10
2018-11-22T15:59:09.403Z,57.20
2018-11-22T16:01:38.355Z,57.10
2018-11-22T16:04:07.006Z,57.60
2018-11-22T16:06:42.425Z,57.70
2018-11-22T16:09:12.011Z,57.90
2018-11-22T16:11:41.337Z,58.40
2018-11-22T16:14:10.383Z,58.20
2018-11-22T16:16:39.402Z,58.20
2018-11-22T16:19:08.718Z,58.30
2018-11-22T16:21:37.681Z,58.30
2018-11-22T16:24:08.038Z,58.50
2018-11-22T16:26:37.267Z,58.40
2018-11-22T16:29:07.859Z,58.80
2018-11-22T16:31:36.507Z,58.90
2018-11-22T16:34:05.543Z,58.90
2018-11-22T16:37:02.796Z,58.70
2018-11-22T16:39:31.480Z,58.40
2018-11-22T16:42:00.304Z,58.80
2018-11-22T16:44:29.316Z,58.80
2018-11-22T16:46:58.605Z,59.20
2018-11-22T16:49:27.377Z,59.00
2018-11-22T16:51:56.300Z,59.40
2018-11-22T16:54:25.218Z,59.40
2018-11-22T16:57:01.522Z,59.80
2018-11-22T16:59:30.460Z,60.10
2018-11-22T17:01:59.129Z,60.00
2018-11-22T17:04:28.121Z,60.00
2018-11-22T17:06:58.549Z,59.80
2018-11-22T17:09:27.825Z,59.50
2018-11-22T17:11:57.057Z,58.80
2018-11-22T17:14:26.320Z,58.90
2018-11-22T17:16:55.338Z,58.70
2018-11-22T17:19:25.022Z,58.80
2018-11-22T17:21:55.655Z,58.70
2018-11-22T17:24:24.664Z,58.30
2018-11-22T17:26:53.612Z,58.40
2018-11-22T17:29:27.197Z,58.40
2018-11-22T17:31:55.856Z,58.40
2018-11-22T17:34:25.150Z,58.30
2018-11-22T17:36:53.797Z,58.10
2018-11-22T17:42:00.518Z,58.40
2018-11-22T17:44:29.242Z,58.70
2018-11-22T17:46:58.206Z,58.70
2018-11-22T17:49:27.168Z,59.40
2018-11-22T17:52:08.419Z,59.60
2018-11-22T17:54:37.360Z,59.60
2018-11-22T17:57:07.620Z,59.80
2018-11-22T17:59:36.573Z,59.50
2018-11-22T18:02:06.989Z,59.50
2018-11-22T18:04:36.270Z,59.40
2018-11-22T18:07:05.327Z,59.60
2018-11-22T18:09:34.318Z,59.30
2018-11-22T18:12:03.587Z,59.50
2018-11-22T18:14:43.580Z,59.70
2018-11-22T18:17:12.261Z,59.70
2018-11-22T18:19:41.349Z,59.50
2018-11-22T18:22:09.999Z,59.80
2018-11-22T18:24:39.674Z,60.00
2018-11-22T18:27:08.633Z,59.90
2018-11-22T18:29:37.638Z,60.20
2018-11-22T18:32:07.207Z,60.30
2018-11-22T18:34:41.208Z,61.00
2018-11-22T18:37:10.201Z,60.90
2018-11-22T18:39:39.293Z,60.60
2018-11-22T18:42:08.276Z,60.10
2018-11-22T18:44:37.542Z,60.00
2018-11-22T18:49:45.781Z,59.50
2018-11-22T18:52:15.046Z,59.40
2018-11-22T18:54:44.308Z,59.60
2018-11-22T18:57:13.241Z,61.80
2018-11-22T18:59:42.366Z,58.90
2018-11-22T19:02:11.103Z,58.90
2018-11-22T19:04:40.320Z,58.80
2018-11-22T19:07:10.549Z,59.50
2018-11-22T19:09:40.115Z,59.60
2018-11-22T19:12:09.404Z,59.30
2018-11-22T19:15:04.202Z,59.80
2018-11-22T19:17:33.493Z,59.70
2018-11-22T19:20:08.848Z,59.70
2018-11-22T19:22:31.484Z,59.80
2018-11-22T19:25:00.129Z,60.00
2018-11-22T19:27:30.402Z,59.70
2018-11-22T19:29:59.677Z,59.70
2018-11-22T19:32:28.357Z,59.90
2018-11-22T19:34:57.043Z,60.30
2018-11-22T19:37:26.406Z,60.70
2018-11-22T19:39:55.458Z,60.60
2018-11-22T19:42:24.218Z,60.60
2018-11-22T19:44:54.016Z,60.20
2018-11-22T19:47:22.995Z,60.20
2018-11-22T19:49:51.951Z,59.90
2018-11-22T19:52:20.934Z,59.70
2018-11-22T19:54:50.211Z,60.00
2018-11-22T19:57:19.469Z,59.80
2018-11-22T19:59:49.135Z,60.50
2018-11-22T20:02:18.037Z,60.40
2018-11-22T20:04:46.993Z,60.50
2018-11-22T20:07:16.566Z,60.00
2018-11-22T20:09:45.213Z,59.80
2018-11-22T20:12:16.598Z,60.30
2018-11-22T20:14:46.525Z,61.10
2018-11-22T20:17:16.501Z,62.00
2018-11-22T20:19:45.436Z,60.60
2018-11-22T20:22:14.519Z,60.50
2018-11-22T20:24:43.788Z,60.70
2018-11-22T20:27:22.961Z,60.90
2018-11-22T20:29:51.911Z,60.80
2018-11-22T20:32:21.176Z,60.00
2018-11-22T20:34:51.838Z,59.80
2018-11-22T20:37:20.610Z,59.20
2018-11-22T20:39:49.621Z,58.90
2018-11-22T20:42:18.952Z,58.80
2018-11-22T20:44:48.545Z,59.60
2018-11-22T20:47:17.765Z,59.50
2018-11-22T20:49:47.047Z,58.80
2018-11-22T20:52:16.259Z,59.40
2018-11-22T20:54:45.277Z,59.50
2018-11-22T20:57:14.836Z,59.60
2018-11-22T20:59:45.379Z,59.70
2018-11-22T21:02:14.716Z,59.70
2018-11-22T21:04:44.008Z,59.60
2018-11-22T21:07:13.005Z,59.80
2018-11-22T21:09:41.780Z,59.90
2018-11-22T21:12:10.714Z,59.80
2018-11-22T21:14:39.946Z,60.00
2018-11-22T21:17:09.541Z,60.10
2018-11-22T21:19:38.565Z,60.00
2018-11-22T21:22:13.104Z,60.50
2018-11-22T21:24:43.480Z,60.40
2018-11-22T21:27:12.149Z,60.40
2018-11-22T21:29:41.071Z,61.40
2018-11-22T21:32:11.087Z,60.90
2018-11-22T21:34:40.094Z,69.90
2018-11-22T21:37:09.162Z,60.00
2018-11-22T21:39:38.721Z,58.90
2018-11-22T21:42:07.786Z,60.30
2018-11-22T21:44:37.043Z,60.60
2018-11-22T21:47:05.969Z,60.90
2018-11-22T21:49:36.349Z,61.60
2018-11-22T21:52:05.350Z,63.00
2018-11-22T21:54:34.342Z,63.30
2018-11-22T21:57:04.131Z,62.60
2018-11-22T21:59:33.350Z,62.30
2018-11-22T22:02:02.395Z,62.00
2018-11-22T22:04:39.579Z,63.00
2018-11-22T22:07:09.056Z,63.00
2018-11-22T22:09:38.178Z,63.60
2018-11-22T22:12:10.466Z,63.40
2018-11-22T22:14:41.383Z,62.70
2018-11-22T22:17:10.362Z,63.00
2018-11-22T22:19:41.742Z,63.60
2018-11-22T22:22:10.710Z,63.40
2018-11-22T22:24:39.369Z,63.00
2018-11-22T22:27:13.820Z,62.50
2018-11-22T22:29:43.112Z,62.00
2018-11-22T22:32:12.101Z,62.70
2018-11-22T22:34:41.097Z,63.40
2018-11-22T22:37:10.365Z,62.70
2018-11-22T22:39:39.378Z,61.90
2018-11-22T22:42:08.053Z,61.70
2018-11-22T22:44:37.535Z,61.10
2018-11-22T22:47:08.069Z,60.90
2018-11-22T22:49:37.289Z,60.90
2018-11-22T22:52:08.268Z,60.40
2018-11-22T22:54:43.307Z,60.30
2018-11-22T22:57:12.274Z,60.30
2018-11-22T22:59:41.541Z,60.00
2018-11-22T23:02:20.339Z,59.80
2018-11-22T23:04:52.278Z,60.20
2018-11-22T23:07:21.507Z,60.40
2018-11-22T23:09:50.774Z,60.70
2018-11-22T23:12:20.965Z,59.80
2018-11-22T23:14:49.170Z,60.60
2018-11-22T23:17:28.307Z,61.00
2018-11-22T23:19:57.331Z,61.00
2018-11-22T23:22:26.367Z,61.20
2018-11-22T23:24:55.966Z,61.60
2018-11-22T23:27:25.022Z,62.20
2018-11-22T23:29:54.465Z,62.10
2018-11-22T23:32:23.767Z,62.20
2018-11-22T23:34:52.824Z,63.20
2018-11-22T23:37:22.079Z,63.00
2018-11-22T23:39:51.726Z,62.30
2018-11-22T23:42:25.675Z,61.40
2018-11-22T23:44:54.322Z,62.30
2018-11-22T23:47:23.006Z,62.60
2018-11-22T23:49:52.366Z,62.60
2018-11-22T23:52:22.551Z,62.10
2018-11-22T23:54:51.251Z,61.70
2018-11-22T23:57:29.302Z,61.90
2018-11-22T23:59:57.992Z,61.70
